AirNav   Everest Fuels
 
 1123 users online  

2OK2 Twin Lakes Airport
Midwest City, Oklahoma, USA

GOING TO MIDWEST CITY?


FAA INFORMATION EFFECTIVE 25 MARCH 2021

Location

FAA Identifier: 2OK2
Lat/Long: 35-19-45.6700N 097-16-11.0450W
35-19.761167N 097-16.184083W
35.3293528,-97.2697347
(estimated)
Elevation: 1198 ft. / 365 m (estimated)
Variation: 07E (1985)
From city: 10 miles SE of MIDWEST CITY, OK
Time zone: UTC -5 (UTC -6 during Standard Time)
Zip code: 73165

Airport Operations

Airport use: Private use. Permission required prior to landing
Control tower: no
ARTCC: FORT WORTH CENTER
FSS: MC ALESTER FLIGHT SERVICE STATION
Attendance: UNATNDD
Wind indicator: yes
Segmented circle: no
Lights: ACTVT LIRL RWY 18/36 - UNICOM.

Airport Communications

UNICOM: 122.7
WX AWOS-3 at OUN (11 nm SW): 119.55 (405-325-7302)
WX AWOS-3 at SNL (16 nm E): 118.275 (405-878-1745)
WX ASOS at OKC (17 nm W): PHONE 405-686-4711

Nearby radio navigation aids

VOR radial/distance  VOR name  Freq  Var
IRWr089/16.7WILL ROGERS VORTAC114.1007E
PWAr116/22.1WILEY POST VOR/DME113.4008E

 
NDB name  Hdg/Dist  Freq  Var  ID
SEMINOLE271/29.327806ESRE ... .-. .

Airport Services

Airframe service: NONE
Powerplant service: NONE

Runway Information

Runway 18/36

Dimensions: 2700 x 30 ft. / 823 x 9 m
Surface: concrete, in good condition
Runway edge lights: low intensity
RUNWAY 18  RUNWAY 36
Latitude: 35-19.981667N35-19.540833N
Longitude: 097-16.148333W097-16.219833W
Elevation: 1198.0 ft.1168.0 ft.
Traffic pattern: leftleft
Markings: numbers only, in good conditionnumbers only, in good condition
Touchdown point: yes, no lightsyes, no lights
Obstructions: 300 ft. pline, 4000 ft. from runwaynone

Airport Ownership and Management from official FAA records

Ownership: Privately-owned
Owner: PILOTS HAVEN AIRPORT INC
14112 CHANDELLE DRIVE
NEWALLA, OK 74857
Phone 405-799-6049
Manager: MARSHALL ALEXANDER
14001 CHANDELLE DRIVE
NEWALLA, OK 74857
Phone 405-799-6049

Airport Operational Statistics

Aircraft based on the field: 20
Single engine airplanes: 19
Multi engine airplanes: 1
    

Additional Remarks

SHARP DROP OFF AT EACH END OF RWY.
HIGH LINE AT RIGHT ANGLE TO RWY-APRX 3/4MI FM S END OF RWY.
FOR CD CTC OKLAHOMA CITY CITY APCH AT 405-681-5683.

Instrument Procedures

There are no published instrument procedures at 2OK2.

Some nearby airports with instrument procedures:

KTIK - Tinker Air Force Base (8 nm NW)
KOUN - University of Oklahoma Westheimer Airport (11 nm SW)
1K4 - David Jay Perry Airport (14 nm SW)
KSNL - Shawnee Regional Airport (16 nm E)
KOKC - Will Rogers World Airport (17 nm W)
KHMY - Muldrow Army Heliport (18 nm S)
 
Loc | Ops | Rwys | IFR | FBO | Links
Com | Nav | Svcs | Stats | Notes
Area around 2OK2 (Twin Lakes Airport)
 
Road maps at: MapQuest Bing Google
 
Aerial photo
WARNING: Photo may not be current or correct
Aerial photo of 2OK2 (Twin Lakes Airport)
Do you have a better or more recent aerial photo of Twin Lakes Airport that you would like to share? If so, please send us your photo.

 
Sectional chart

 
Airport distance calculator
Flying to Twin Lakes Airport? Find the distance to fly.

From to 2OK2

Sunrise and sunset
Times for 15-Apr-2021
 Local
(UTC-5)
 Zulu
(UTC)
Morning civil twilight06:3211:32
Sunrise06:5811:58
Sunset20:0101:01
Evening civil twilight20:2701:27

Current date and time
Zulu (UTC)  16-Apr-2021 00:09:20
Local (UTC-5)  15-Apr-2021 19:09:20
 
METAR
KTIK 
7nm NW 
152356Z AUTO 05006KT 10SM CLR 11/06 A2997 RMK AO2 SLP156 P0001 60001 T01050059 10143 20105 57015 $
KOUN 
11nm SW 
152345Z 35004KT 7SM -RA SCT039 OVC090 10/07 A2996
KSNL 
16nm E 
152355Z AUTO 04008KT 10SM SCT050 SCT065 OVC090 12/04 A2997 RMK AO2 T01150038 10151 20115
KOKC 
16nm W 
152352Z 04007KT 10SM -RA SCT039 OVC090 10/06 A2998 RMK AO2 SLP149 P0002 60002 T01000061 10133 20100 56013
TAF
KTIK 
7nm NW 
151700Z 1517/1623 07012G18KT 9999 OVC040 QNH3008INS BECMG 1520/1521 07012KT 8000 -SHRA SCT012 OVC030 QNH2995INS TEMPO 1521/1524 6000 -SHRA VCTS BKN012CB BECMG 1604/1605 07012KT 8000 -SHRA OVC009 QNH2993INS BECMG 1610/1611 10009KT 4800 -RA VCTS OVC005CB 510032 QNH2980INS TEMPO 1611/1614 4800 -TSRA OVC005CB BECMG 1613/1614 12009KT 3200 -RA BR OVC003 510033 520334 QNH2980INS BECMG 1617/1618 14010G15KT 9000 BR VCSH OVC003 510033 520334 QNH2977INS BECMG 1620/1621 21010G15KT 8000 DZ BR OVC003 510182 Q
KOUN 
11nm SW 
151751Z 1518/1618 05014G20KT P6SM OVC050 FM151900 06014KT 6SM RA BR OVC035 TEMPO 1520/1524 5SM RA BR OVC025 FM160000 07011KT 5SM SHRA BR OVC012 FM160300 09008KT 6SM SHRA BR OVC006 PROB30 1608/1614 3SM TSRA OVC003CB FM161500 12007KT 6SM -DZ BR OVC006
KOKC 
16nm W 
151952Z 1520/1618 04003KT 6SM -RA OVC040 FM152200 08012KT P6SM SCT025 OVC035 TEMPO 1600/1603 6SM SHRA SCT015 OVC030 FM160300 10009KT 6SM SHRA BR OVC006 PROB30 1608/1614 3SM TSRA OVC003CB FM161500 12009KT 6SM -DZ BR OVC006
NOTAMs
Click for the latest NOTAMs
NOTAMs are issued by the DoD/FAA and will open in a separate window not controlled by AirNav.

 

 
 

Would you like to see your business listed on this page?

 If your business provides an interesting product or service to pilots, flight crews, aircraft, or users of the Twin Lakes Airport, you should consider listing it here.  To start the listing process, click on the button below
 
Add a business
 

Other Pages about Twin Lakes Airport

Update a link
 
Copyright © AirNav, LLC. All rights reserved. Privacy Policy  Contact